Aviation Digital Data Service (ADDS)

Output produced by METARs form (0511 UTC 20 April 2018)
found at http://aviationweather.gov/adds/metars/
 
METAR text: EPWR 200500Z 12006KT CAVOK 10/09 Q1028
Conditions at: EPWR (WROCLAW/STRACHOW, PL) observed 0500 UTC 20 April 2018
Temperature: 10.0°C (50°F)
Dewpoint: 9.0°C (48°F) [RH = 93%]
Pressure (altimeter): 30.35 inches Hg (1028.0 mb)
Winds: from the ESE (120 degrees) at 7 MPH (6 knots; 3.1 m/s)
Visibility: 6 or more miles (10+ km)
Ceiling: ceiling and visibility are OK
Clouds: unknown
Weather: no significant weather observed at this time

Forecast for: EPWR (WROCLAW/STRACHOW, PL)
Text: TAF EPWR 200230Z 2003/2103 VRB02KT CAVOK
Forecast period: 0300 to 0900 UTC 20 April 2018
Forecast type: FROM: standard forecast or significant change
Winds: variable direction winds at 2 MPH (2 knots; 1.0 m/s)
Visibility: 6 or more miles (10+ km)
Clouds: not forecast
Weather: NSW  (no significant weather)
Forecast for: EPWR (WROCLAW/STRACHOW, PL)
Text: TAF EPWR 200230Z 2003/2103 VRB02KT CAVOK
Forecast period: 0300 to 0900 UTC 20 April 2018
Forecast type: FROM: standard forecast or significant change
Winds: variable direction winds at 2 MPH (2 knots; 1.0 m/s)
Visibility: 6 or more miles (10+ km)
Clouds: not forecast
Weather: NSW  (no significant weather)
Forecast for: EPWR (WROCLAW/STRACHOW, PL)
Text: TAF EPWR 200230Z 2003/2103 VRB02KT CAVOK
Forecast period: 0300 to 0600 UTC 20 April 2018
Forecast type: PROBABLE: 40 percent likelihood of the following during this time
Visibility: 2.80 miles (4.51 km)
Weather: BR  (mist)
Forecast for: EPWR (WROCLAW/STRACHOW, PL)
Text: TAF EPWR 200230Z 2003/2103 VRB02KT CAVOK
Forecast period: 0300 to 0600 UTC 20 April 2018
Forecast type: PROBABLE: 40 percent likelihood of the following during this time
Visibility: 2.80 miles (4.51 km)
Weather: BR  (mist)
Forecast for: EPWR (WROCLAW/STRACHOW, PL)
Text: TAF EPWR 200230Z 2003/2103 VRB02KT CAVOK
Forecast period: 0300 to 0500 UTC 20 April 2018
Forecast type: PROBABLE: 30 percent likelihood of the following during this time
Visibility: 0.43 miles (0.69 km)
Weather: FG  (fog)
Forecast for: EPWR (WROCLAW/STRACHOW, PL)
Text: TAF EPWR 200230Z 2003/2103 VRB02KT CAVOK
Forecast period: 0300 to 0500 UTC 20 April 2018
Forecast type: PROBABLE: 30 percent likelihood of the following during this time
Visibility: 0.43 miles (0.69 km)
Weather: FG  (fog)
Forecast for: EPWR (WROCLAW/STRACHOW, PL)
Text: TAF EPWR 200230Z 2003/2103 VRB02KT CAVOK
Forecast period: 0900 UTC 20 April 2018 to 0300 UTC 21 April 2018
Forecast type: BECOMING: Conditions expected to become as follows by 1200 UTC 20 April 2018
Winds: from the SSE (150 degrees) at 12 MPH (10 knots; 5.2 m/s)
Visibility: 6 or more miles (10+ km)
Weather: NSW  (no significant weather)
Forecast for: EPWR (WROCLAW/STRACHOW, PL)
Text: TAF EPWR 200230Z 2003/2103 VRB02KT CAVOK
Forecast period: 0900 UTC 20 April 2018 to 0300 UTC 21 April 2018
Forecast type: BECOMING: Conditions expected to become as follows by 1200 UTC 20 April 2018
Winds: from the SSE (150 degrees) at 12 MPH (10 knots; 5.2 m/s)
Visibility: 6 or more miles (10+ km)
Weather: NSW  (no significant weather)